createdAt,value
2017-07-19T00:00:02.121Z,1008.61
2017-07-19T00:00:56.161Z,1008.56
2017-07-19T00:01:51.278Z,1008.55
2017-07-19T00:02:39.193Z,1008.53
2017-07-19T00:03:27.617Z,1008.51
2017-07-19T00:04:16.472Z,1008.48
2017-07-19T00:05:05.265Z,1008.50
2017-07-19T00:05:59.387Z,1008.49
2017-07-19T00:06:48.439Z,1008.46
2017-07-19T00:07:42.449Z,1008.46
2017-07-19T00:08:30.889Z,1008.44
2017-07-19T00:09:19.579Z,1008.43
2017-07-19T00:10:08.588Z,1008.40
2017-07-19T00:10:56.689Z,1008.40
2017-07-19T00:11:50.762Z,1008.33
2017-07-19T00:12:50.699Z,1008.34
2017-07-19T00:13:45.790Z,1008.35
2017-07-19T00:14:40.812Z,1008.36
2017-07-19T00:15:34.867Z,1008.32
2017-07-19T00:16:28.840Z,1008.32
2017-07-19T00:17:24.161Z,1008.33
2017-07-19T00:18:23.909Z,1008.31
2017-07-19T00:19:18.168Z,1008.29
2017-07-19T00:20:18.994Z,1008.31
2017-07-19T00:21:08.028Z,1008.31
2017-07-19T00:22:03.152Z,1008.28
2017-07-19T00:22:57.159Z,1008.30
2017-07-19T00:23:57.160Z,1008.30
2017-07-19T00:24:57.379Z,1008.24
2017-07-19T00:25:52.296Z,1008.26
2017-07-19T00:26:46.250Z,1008.22
2017-07-19T00:27:40.396Z,1008.19
2017-07-19T00:28:35.428Z,1008.16
2017-07-19T00:29:35.425Z,1008.14
2017-07-19T00:30:30.499Z,1008.16
2017-07-19T00:31:25.503Z,1008.12
2017-07-19T00:32:26.485Z,1008.17
2017-07-19T00:33:21.990Z,1008.18
2017-07-19T00:34:21.691Z,1008.15
2017-07-19T00:35:21.692Z,1008.14
2017-07-19T00:36:10.708Z,1008.14
2017-07-19T00:37:05.838Z,1008.12
2017-07-19T00:38:05.730Z,1008.13
2017-07-19T00:39:00.871Z,1008.11
2017-07-19T00:39:54.903Z,1008.14
2017-07-19T00:40:49.839Z,1008.13
2017-07-19T00:41:39.012Z,1008.09
2017-07-19T00:42:33.010Z,1008.12
2017-07-19T00:43:33.042Z,1008.11
2017-07-19T00:44:28.470Z,1008.07
2017-07-19T00:45:17.548Z,1008.05
2017-07-19T00:46:12.028Z,1008.07
2017-07-19T00:47:07.210Z,1008.06
2017-07-19T00:48:01.294Z,1008.05
2017-07-19T00:48:49.236Z,1008.04
2017-07-19T00:49:43.308Z,1008.06
2017-07-19T00:50:43.385Z,1008.02
2017-07-19T00:51:37.342Z,1008.05
2017-07-19T00:52:37.462Z,1008.00
2017-07-19T00:53:25.502Z,1007.98
2017-07-19T00:54:25.471Z,1008.00
2017-07-19T00:55:14.567Z,1007.96
2017-07-19T00:56:14.614Z,1007.94
2017-07-19T00:57:09.679Z,1007.93
2017-07-19T00:58:04.675Z,1007.93
2017-07-19T00:59:05.083Z,1007.92
2017-07-19T00:59:59.787Z,1007.92
2017-07-19T01:00:54.727Z,1007.90
2017-07-19T01:01:43.811Z,1007.91
2017-07-19T01:02:37.926Z,1007.96
2017-07-19T01:03:31.868Z,1007.96
2017-07-19T01:04:32.874Z,1007.92
2017-07-19T01:05:22.360Z,1007.95
2017-07-19T01:06:16.112Z,1007.88
2017-07-19T01:07:11.126Z,1007.89
2017-07-19T01:08:06.170Z,1007.88
2017-07-19T01:08:55.219Z,1007.93
2017-07-19T01:09:50.161Z,1007.91
2017-07-19T01:10:38.209Z,1007.87
2017-07-19T01:11:39.395Z,1007.82
2017-07-19T01:12:33.387Z,1007.83
2017-07-19T01:13:22.597Z,1007.79
2017-07-19T01:14:16.392Z,1007.77
2017-07-19T01:15:16.445Z,1007.78
2017-07-19T01:16:10.394Z,1007.75
2017-07-19T01:16:58.534Z,1007.74
2017-07-19T01:17:52.566Z,1007.72
2017-07-19T01:18:47.678Z,1007.73
2017-07-19T01:19:47.870Z,1007.75
2017-07-19T01:20:41.634Z,1007.70
2017-07-19T01:21:42.622Z,1007.71
2017-07-19T01:22:37.708Z,1007.67
2017-07-19T01:23:31.957Z,1007.67
2017-07-19T01:24:32.817Z,1007.65
2017-07-19T01:25:32.854Z,1007.65
2017-07-19T01:26:32.854Z,1007.64
2017-07-19T01:27:26.944Z,1007.65
2017-07-19T01:28:15.029Z,1007.67
2017-07-19T01:29:04.481Z,1007.63
2017-07-19T01:29:52.107Z,1007.62
2017-07-19T01:30:40.131Z,1007.61
2017-07-19T01:31:34.234Z,1007.56
2017-07-19T01:32:28.146Z,1007.55
2017-07-19T01:33:23.318Z,1007.54
2017-07-19T01:34:12.284Z,1007.56
2017-07-19T01:35:07.292Z,1007.56
2017-07-19T01:36:01.422Z,1007.55
2017-07-19T01:37:02.392Z,1007.50
2017-07-19T01:37:57.478Z,1007.55
2017-07-19T01:38:51.617Z,1007.53
2017-07-19T01:39:51.793Z,1007.51
2017-07-19T01:40:39.589Z,1007.48
2017-07-19T01:41:34.643Z,1007.45
2017-07-19T01:42:34.617Z,1007.41
2017-07-19T01:43:28.678Z,1007.44
2017-07-19T01:44:23.766Z,1007.43
2017-07-19T01:45:19.163Z,1007.41
2017-07-19T01:46:07.844Z,1007.45
2017-07-19T01:47:07.916Z,1007.44
2017-07-19T01:48:02.844Z,1007.41
2017-07-19T01:49:03.152Z,1007.46
2017-07-19T01:49:56.952Z,1007.42
2017-07-19T01:50:58.024Z,1007.43
2017-07-19T01:51:58.978Z,1007.42
2017-07-19T01:52:48.129Z,1007.44
2017-07-19T01:53:43.096Z,1007.40
2017-07-19T01:54:44.221Z,1007.38
2017-07-19T01:55:44.171Z,1007.40
2017-07-19T01:56:39.211Z,1007.42
2017-07-19T01:57:34.208Z,1007.41
2017-07-19T01:58:29.402Z,1007.42
2017-07-19T01:59:30.830Z,1007.43
2017-07-19T02:00:24.438Z,1007.42
2017-07-19T02:01:24.470Z,1007.37
2017-07-19T02:02:19.454Z,1007.41
2017-07-19T02:03:08.488Z,1007.38
2017-07-19T02:04:03.860Z,1007.42
2017-07-19T02:04:58.555Z,1007.39
2017-07-19T02:05:53.584Z,1007.38
2017-07-19T02:06:42.673Z,1007.41
2017-07-19T02:07:37.714Z,1007.34
2017-07-19T02:08:37.741Z,1007.39
2017-07-19T02:09:32.349Z,1007.35
2017-07-19T02:10:32.797Z,1007.35
2017-07-19T02:11:32.825Z,1007.33
2017-07-19T02:12:32.834Z,1007.35
2017-07-19T02:13:32.927Z,1007.29
2017-07-19T02:14:33.818Z,1007.31
2017-07-19T02:15:27.025Z,1007.30
2017-07-19T02:16:26.989Z,1007.27
2017-07-19T02:17:21.378Z,1007.31
2017-07-19T02:18:09.108Z,1007.28
2017-07-19T02:19:03.341Z,1007.30
2017-07-19T02:20:03.304Z,1007.30
2017-07-19T02:20:57.258Z,1007.28
2017-07-19T02:21:52.282Z,1007.29
2017-07-19T02:22:52.597Z,1007.27
2017-07-19T02:23:52.348Z,1007.24
2017-07-19T02:24:40.365Z,1007.22
2017-07-19T02:25:29.504Z,1007.24
2017-07-19T02:26:18.722Z,1007.24
2017-07-19T02:27:06.509Z,1007.24
2017-07-19T02:28:00.577Z,1007.20
2017-07-19T02:28:49.658Z,1007.21
2017-07-19T02:29:38.680Z,1007.21
2017-07-19T02:30:27.743Z,1007.18
2017-07-19T02:31:15.818Z,1007.17
2017-07-19T02:32:03.880Z,1007.18
2017-07-19T02:32:57.858Z,1007.18
2017-07-19T02:33:51.910Z,1007.18
2017-07-19T02:34:39.865Z,1007.15
2017-07-19T02:35:33.948Z,1007.15
2017-07-19T02:36:23.199Z,1007.17
2017-07-19T02:37:12.025Z,1007.17
2017-07-19T02:38:01.041Z,1007.17
2017-07-19T02:38:55.122Z,1007.19
2017-07-19T02:39:50.553Z,1007.22
2017-07-19T02:40:50.202Z,1007.19
2017-07-19T02:41:45.370Z,1007.20
2017-07-19T02:42:40.304Z,1007.16
2017-07-19T02:43:41.299Z,1007.18
2017-07-19T02:44:41.463Z,1007.16
2017-07-19T02:45:41.418Z,1007.14
2017-07-19T02:46:36.381Z,1007.12
2017-07-19T02:47:30.617Z,1007.11
2017-07-19T02:48:30.524Z,1007.06
2017-07-19T02:49:24.561Z,1007.07
2017-07-19T02:50:24.548Z,1007.07
2017-07-19T02:51:19.557Z,1007.05
2017-07-19T02:52:07.709Z,1007.02
2017-07-19T02:53:07.749Z,1006.98
2017-07-19T02:54:08.243Z,1007.01
2017-07-19T02:54:56.743Z,1007.03
2017-07-19T02:55:50.876Z,1007.02
2017-07-19T02:56:50.945Z,1007.00
2017-07-19T02:57:39.967Z,1007.00
2017-07-19T02:58:27.930Z,1006.96
2017-07-19T02:59:22.098Z,1006.95
2017-07-19T03:00:17.090Z,1006.92
2017-07-19T03:01:18.524Z,1006.92
2017-07-19T03:02:18.082Z,1006.91
2017-07-19T03:03:18.158Z,1006.90
2017-07-19T03:04:13.615Z,1006.94
2017-07-19T03:05:07.360Z,1006.92
2017-07-19T03:06:07.289Z,1006.92
2017-07-19T03:06:56.320Z,1006.93
2017-07-19T03:07:50.295Z,1006.92
2017-07-19T03:08:44.390Z,1006.89
2017-07-19T03:09:39.674Z,1006.87
2017-07-19T03:10:39.472Z,1006.88
2017-07-19T03:11:34.461Z,1006.87
2017-07-19T03:12:28.519Z,1006.89
2017-07-19T03:13:23.540Z,1006.84
2017-07-19T03:14:12.099Z,1006.87
2017-07-19T03:15:00.775Z,1006.86
2017-07-19T03:15:49.671Z,1006.87
2017-07-19T03:16:44.795Z,1006.85
2017-07-19T03:17:39.820Z,1006.87
2017-07-19T03:18:28.915Z,1006.86
2017-07-19T03:19:29.965Z,1006.84
2017-07-19T03:20:31.019Z,1006.84
2017-07-19T03:21:30.913Z,1006.84
2017-07-19T03:22:30.984Z,1006.85
2017-07-19T03:23:25.011Z,1006.85
2017-07-19T03:24:13.477Z,1006.85
2017-07-19T03:25:14.150Z,1006.88
2017-07-19T03:26:14.215Z,1006.89
2017-07-19T03:27:14.243Z,1006.86
2017-07-19T03:28:14.245Z,1006.84
2017-07-19T03:29:09.845Z,1006.87
2017-07-19T03:29:57.264Z,1006.83
2017-07-19T03:30:57.384Z,1006.86
2017-07-19T03:31:52.362Z,1006.86
2017-07-19T03:32:47.450Z,1006.83
2017-07-19T03:33:47.472Z,1006.81
2017-07-19T03:34:42.429Z,1006.81
2017-07-19T03:35:37.546Z,1006.81
2017-07-19T03:36:31.691Z,1006.84
2017-07-19T03:37:25.636Z,1006.84
2017-07-19T03:38:19.649Z,1006.85
2017-07-19T03:39:15.284Z,1006.85
2017-07-19T03:40:02.747Z,1006.87
2017-07-19T03:40:51.946Z,1006.89
2017-07-19T03:41:46.843Z,1006.86
2017-07-19T03:42:41.996Z,1006.87
2017-07-19T03:43:41.933Z,1006.91
2017-07-19T03:44:31.170Z,1006.83
2017-07-19T03:45:31.034Z,1006.92
2017-07-19T03:46:30.994Z,1006.90
2017-07-19T03:47:25.084Z,1006.91
2017-07-19T03:48:20.174Z,1006.85
2017-07-19T03:49:15.672Z,1006.85
2017-07-19T03:50:04.279Z,1006.83
2017-07-19T03:51:04.304Z,1006.83
2017-07-19T03:52:04.350Z,1006.82
2017-07-19T03:52:58.333Z,1006.81
2017-07-19T03:53:53.388Z,1006.85
2017-07-19T03:54:48.636Z,1006.84
2017-07-19T03:55:42.320Z,1006.84
2017-07-19T03:56:37.433Z,1006.82
2017-07-19T03:57:37.471Z,1006.84
2017-07-19T03:58:32.476Z,1006.82
2017-07-19T03:59:20.601Z,1006.80
2017-07-19T04:00:09.710Z,1006.77
2017-07-19T04:00:57.743Z,1006.80
2017-07-19T04:01:46.705Z,1006.78
2017-07-19T04:02:41.807Z,1006.79
2017-07-19T04:03:41.787Z,1006.78
2017-07-19T04:04:36.796Z,1006.78
2017-07-19T04:05:24.917Z,1006.80
2017-07-19T04:06:24.829Z,1006.76
2017-07-19T04:07:19.051Z,1006.78
2017-07-19T04:08:19.041Z,1006.80
2017-07-19T04:09:13.413Z,1006.77
2017-07-19T04:10:07.101Z,1006.78
2017-07-19T04:11:02.192Z,1006.76
2017-07-19T04:11:57.268Z,1006.73
2017-07-19T04:12:51.290Z,1006.73
2017-07-19T04:13:52.258Z,1006.73
2017-07-19T04:14:47.310Z,1006.76
2017-07-19T04:15:47.375Z,1006.75
2017-07-19T04:16:47.307Z,1006.79
2017-07-19T04:17:47.411Z,1006.78
2017-07-19T04:18:47.485Z,1006.80
2017-07-19T04:19:41.462Z,1006.85
2017-07-19T04:20:30.562Z,1006.81
2017-07-19T04:21:18.685Z,1006.82
2017-07-19T04:22:18.583Z,1006.80
2017-07-19T04:23:12.640Z,1006.82
2017-07-19T04:24:13.221Z,1006.84
2017-07-19T04:25:07.669Z,1006.83
2017-07-19T04:26:07.814Z,1006.81
2017-07-19T04:27:01.904Z,1006.81
2017-07-19T04:28:01.839Z,1006.79
2017-07-19T04:28:56.916Z,1006.73
2017-07-19T04:29:50.990Z,1006.72
2017-07-19T04:30:51.082Z,1006.70
2017-07-19T04:31:45.940Z,1006.75
2017-07-19T04:32:41.126Z,1006.72
2017-07-19T04:33:35.203Z,1006.69
2017-07-19T04:34:30.114Z,1006.72
2017-07-19T04:35:24.173Z,1006.69
2017-07-19T04:36:18.208Z,1006.67
2017-07-19T04:37:13.286Z,1006.66
2017-07-19T04:38:13.320Z,1006.69
2017-07-19T04:39:13.813Z,1006.68
2017-07-19T04:40:07.572Z,1006.66
2017-07-19T04:41:01.328Z,1006.68
2017-07-19T04:42:01.398Z,1006.67
2017-07-19T04:43:01.481Z,1006.69
2017-07-19T04:43:55.636Z,1006.68
2017-07-19T04:44:50.552Z,1006.71
2017-07-19T04:45:50.598Z,1006.72
2017-07-19T04:46:44.696Z,1006.67
2017-07-19T04:47:44.767Z,1006.70
2017-07-19T04:48:39.869Z,1006.71
2017-07-19T04:49:34.410Z,1006.71
2017-07-19T04:50:28.920Z,1006.71
2017-07-19T04:51:22.946Z,1006.70
2017-07-19T04:52:22.940Z,1006.70
2017-07-19T04:53:22.891Z,1006.69
2017-07-19T04:54:12.390Z,1006.71
2017-07-19T04:55:07.187Z,1006.73
2017-07-19T04:56:01.056Z,1006.69
2017-07-19T04:56:50.156Z,1006.72
2017-07-19T04:57:39.162Z,1006.73
2017-07-19T04:58:33.295Z,1006.72
2017-07-19T04:59:28.320Z,1006.70
2017-07-19T05:00:29.460Z,1006.70
2017-07-19T05:01:29.382Z,1006.69
2017-07-19T05:02:23.349Z,1006.69
2017-07-19T05:03:17.457Z,1006.60
2017-07-19T05:04:11.890Z,1006.61
2017-07-19T05:05:06.677Z,1006.61
2017-07-19T05:06:00.774Z,1006.62
2017-07-19T05:06:55.661Z,1006.64
2017-07-19T05:07:49.839Z,1006.59
2017-07-19T05:08:43.728Z,1006.59
2017-07-19T05:09:38.810Z,1006.59
2017-07-19T05:10:32.749Z,1006.60
2017-07-19T05:11:27.941Z,1006.59
2017-07-19T05:12:22.888Z,1006.60
2017-07-19T05:13:17.164Z,1006.64
2017-07-19T05:14:11.517Z,1006.60
2017-07-19T05:15:06.445Z,1006.67
2017-07-19T05:15:55.269Z,1006.65
2017-07-19T05:16:49.219Z,1006.62
2017-07-19T05:17:55.181Z,1006.63
2017-07-19T05:18:49.473Z,1006.59
2017-07-19T05:19:44.492Z,1006.62
2017-07-19T05:20:39.370Z,1006.59
2017-07-19T05:21:28.335Z,1006.64
2017-07-19T05:22:23.690Z,1006.57
2017-07-19T05:23:11.521Z,1006.59
2017-07-19T05:24:13.025Z,1006.58
2017-07-19T05:25:01.695Z,1006.61
2017-07-19T05:25:55.604Z,1006.60
2017-07-19T05:26:51.093Z,1006.59
2017-07-19T05:27:45.127Z,1006.57
2017-07-19T05:28:39.124Z,1006.57
2017-07-19T05:29:34.172Z,1006.53
2017-07-19T05:30:28.209Z,1006.52
2017-07-19T05:31:16.196Z,1006.52
2017-07-19T05:32:10.365Z,1006.50
2017-07-19T05:32:58.477Z,1006.48
2017-07-19T05:33:52.409Z,1006.48
2017-07-19T05:34:40.501Z,1006.49
2017-07-19T05:35:40.559Z,1006.53
2017-07-19T05:36:29.271Z,1006.60
2017-07-19T05:37:29.272Z,1006.53
2017-07-19T05:38:18.404Z,1006.54
2017-07-19T05:39:07.830Z,1006.53
2017-07-19T05:39:56.846Z,1006.57
2017-07-19T05:40:45.830Z,1006.50
2017-07-19T05:41:39.900Z,1006.55
2017-07-19T05:42:34.950Z,1006.56
2017-07-19T05:43:29.030Z,1006.54
2017-07-19T05:44:18.256Z,1006.46
2017-07-19T05:45:13.073Z,1006.50
2017-07-19T05:46:12.768Z,1006.49
2017-07-19T05:47:07.838Z,1006.51
2017-07-19T05:47:56.906Z,1006.50
2017-07-19T05:48:51.343Z,1006.47
2017-07-19T05:49:45.046Z,1006.48
2017-07-19T05:50:34.104Z,1006.50
2017-07-19T05:51:23.089Z,1006.48
2017-07-19T05:52:17.202Z,1006.45
2017-07-19T05:53:11.311Z,1006.43
2017-07-19T05:54:11.783Z,1006.41
2017-07-19T05:55:00.371Z,1006.40
2017-07-19T05:55:49.480Z,1006.36
2017-07-19T05:56:43.524Z,1006.32
2017-07-19T05:57:43.530Z,1006.32
2017-07-19T05:58:32.939Z,1006.38
2017-07-19T05:59:26.699Z,1006.38
2017-07-19T06:00:26.920Z,1006.41
2017-07-19T06:01:21.731Z,1006.40
2017-07-19T06:02:17.304Z,1006.42
2017-07-19T06:03:11.910Z,1006.44
2017-07-19T06:04:12.378Z,1006.42
2017-07-19T06:05:05.989Z,1006.44
2017-07-19T06:06:06.060Z,1006.43
2017-07-19T06:06:59.974Z,1006.40
2017-07-19T06:07:54.473Z,1006.38
2017-07-19T06:08:43.268Z,1006.39
2017-07-19T06:09:32.608Z,1006.38
2017-07-19T06:10:21.564Z,1006.34
2017-07-19T06:11:09.300Z,1006.36
2017-07-19T06:11:57.418Z,1006.29
2017-07-19T06:12:45.453Z,1006.27
2017-07-19T06:13:34.997Z,1006.30
2017-07-19T06:14:23.470Z,1006.31
2017-07-19T06:15:17.909Z,1006.30
2017-07-19T06:16:12.751Z,1006.28
2017-07-19T06:17:06.731Z,1006.30
2017-07-19T06:18:01.025Z,1006.29
2017-07-19T06:18:55.000Z,1006.31
2017-07-19T06:19:49.926Z,1006.25
2017-07-19T06:20:45.322Z,1006.26
2017-07-19T06:21:45.308Z,1006.27
2017-07-19T06:22:39.403Z,1006.28
2017-07-19T06:23:33.468Z,1006.25
2017-07-19T06:24:27.528Z,1006.26
2017-07-19T06:25:21.542Z,1006.24
2017-07-19T06:26:21.152Z,1006.23
2017-07-19T06:27:15.258Z,1006.21
2017-07-19T06:28:16.350Z,1006.26
2017-07-19T06:29:05.467Z,1006.24
2017-07-19T06:29:53.381Z,1006.27
2017-07-19T06:30:42.582Z,1006.21
2017-07-19T06:31:36.908Z,1006.19
2017-07-19T06:32:30.649Z,1006.26
2017-07-19T06:33:24.724Z,1006.19
2017-07-19T06:34:14.107Z,1006.21
2017-07-19T06:35:13.864Z,1006.23
2017-07-19T06:36:08.874Z,1006.20
2017-07-19T06:37:09.201Z,1006.16
2017-07-19T06:38:03.043Z,1006.21
2017-07-19T06:38:52.340Z,1006.26
2017-07-19T06:39:46.509Z,1006.21
2017-07-19T06:40:40.475Z,1006.23
2017-07-19T06:41:35.370Z,1006.24
2017-07-19T06:42:23.424Z,1006.25
2017-07-19T06:43:17.725Z,1006.22
2017-07-19T06:44:17.926Z,1006.21
2017-07-19T06:45:12.015Z,1006.18
2017-07-19T06:46:06.697Z,1006.22
2017-07-19T06:46:55.791Z,1006.19
2017-07-19T06:47:49.804Z,1006.15
2017-07-19T06:48:43.833Z,1006.18
2017-07-19T06:49:39.316Z,1006.12
2017-07-19T06:50:33.518Z,1006.12
2017-07-19T06:51:27.465Z,1006.10
2017-07-19T06:52:21.183Z,1006.07
2017-07-19T06:53:27.416Z,1006.07
2017-07-19T06:54:28.516Z,1006.04
2017-07-19T06:55:22.732Z,1005.99
2017-07-19T06:56:11.854Z,1005.99
2017-07-19T06:57:12.014Z,1005.99
2017-07-19T06:58:05.712Z,1005.96
2017-07-19T06:59:05.713Z,1005.93
2017-07-19T07:00:01.138Z,1005.89
2017-07-19T07:01:01.237Z,1005.82
2017-07-19T07:01:56.247Z,1005.78
2017-07-19T07:02:55.975Z,1005.75
2017-07-19T07:03:50.479Z,1005.72
2017-07-19T07:04:39.640Z,1005.69
2017-07-19T07:05:33.770Z,1005.69
2017-07-19T07:06:21.673Z,1005.68
2017-07-19T07:07:15.406Z,1005.66
2017-07-19T07:08:10.931Z,1005.57
2017-07-19T07:08:59.742Z,1005.56
2017-07-19T07:09:54.713Z,1005.50
2017-07-19T07:10:43.961Z,1005.54
2017-07-19T07:11:38.914Z,1005.54
2017-07-19T07:12:33.006Z,1005.52
2017-07-19T07:13:27.243Z,1005.49
2017-07-19T07:14:22.405Z,1005.50
2017-07-19T07:15:16.425Z,1005.47
2017-07-19T07:16:10.238Z,1005.46
2017-07-19T07:17:04.281Z,1005.48
2017-07-19T07:18:04.684Z,1005.48
2017-07-19T07:18:59.410Z,1005.44
2017-07-19T07:19:53.454Z,1005.43
2017-07-19T07:20:41.988Z,1005.46
2017-07-19T07:21:36.216Z,1005.49
2017-07-19T07:22:30.129Z,1005.52
2017-07-19T07:23:24.090Z,1005.53
2017-07-19T07:24:19.397Z,1005.49
2017-07-19T07:25:19.257Z,1005.51
2017-07-19T07:26:08.442Z,1005.48
2017-07-19T07:27:02.464Z,1005.48
2017-07-19T07:27:56.653Z,1005.45
2017-07-19T07:28:45.271Z,1005.39
2017-07-19T07:29:39.419Z,1005.39
2017-07-19T07:30:28.996Z,1005.38
2017-07-19T07:31:24.183Z,1005.42
2017-07-19T07:32:18.049Z,1005.45
2017-07-19T07:33:05.657Z,1005.44
2017-07-19T07:34:00.919Z,1005.48
2017-07-19T07:34:50.137Z,1005.47
2017-07-19T07:35:44.354Z,1005.49
2017-07-19T07:36:32.937Z,1005.46
2017-07-19T07:37:27.444Z,1005.52
2017-07-19T07:38:16.382Z,1005.50
2017-07-19T07:39:10.696Z,1005.46
2017-07-19T07:40:05.808Z,1005.45
2017-07-19T07:40:59.650Z,1005.42
2017-07-19T07:41:53.885Z,1005.44
2017-07-19T07:42:47.728Z,1005.42
2017-07-19T07:43:47.864Z,1005.45
2017-07-19T07:44:43.003Z,1005.42
2017-07-19T07:45:37.167Z,1005.42
2017-07-19T07:46:26.392Z,1005.38
2017-07-19T07:47:20.410Z,1005.41
2017-07-19T07:48:14.448Z,1005.40
2017-07-19T07:49:02.646Z,1005.41
2017-07-19T07:49:51.528Z,1005.42
2017-07-19T07:50:40.681Z,1005.37
2017-07-19T07:51:28.769Z,1005.37
2017-07-19T07:52:28.967Z,1005.35
2017-07-19T07:53:23.026Z,1005.30
2017-07-19T07:54:18.105Z,1005.41
2017-07-19T07:55:07.135Z,1005.37
2017-07-19T07:56:01.204Z,1005.29
2017-07-19T07:56:55.290Z,1005.25
2017-07-19T07:57:50.224Z,1005.25
2017-07-19T07:58:45.345Z,1005.23
2017-07-19T07:59:40.340Z,1005.22
2017-07-19T08:00:34.253Z,1005.19
2017-07-19T08:01:23.749Z,1005.20
2017-07-19T08:02:23.349Z,1005.20
2017-07-19T08:03:18.460Z,1005.15
2017-07-19T08:04:19.904Z,1005.17
2017-07-19T08:05:13.977Z,1005.16
2017-07-19T08:06:09.150Z,1005.24
2017-07-19T08:07:03.150Z,1005.17
2017-07-19T08:07:57.274Z,1005.23
2017-07-19T08:08:46.481Z,1005.28
2017-07-19T08:09:41.423Z,1005.23
2017-07-19T08:10:36.519Z,1005.25
2017-07-19T08:11:36.626Z,1005.25
2017-07-19T08:12:36.638Z,1005.19
2017-07-19T08:13:24.704Z,1005.22
2017-07-19T08:14:18.794Z,1005.21
2017-07-19T08:15:12.995Z,1005.23
2017-07-19T08:16:12.942Z,1005.26
2017-07-19T08:17:07.015Z,1005.19
2017-07-19T08:18:08.110Z,1005.17
2017-07-19T08:19:03.217Z,1005.22
2017-07-19T08:19:58.247Z,1005.16
2017-07-19T08:20:46.370Z,1005.22
2017-07-19T08:21:40.396Z,1005.20
2017-07-19T08:22:29.469Z,1005.19
2017-07-19T08:23:18.645Z,1005.15
2017-07-19T08:24:13.730Z,1005.16
2017-07-19T08:25:07.812Z,1005.15
2017-07-19T08:26:01.813Z,1005.09
2017-07-19T08:27:01.855Z,1005.11
2017-07-19T08:28:01.961Z,1005.05
2017-07-19T08:28:57.062Z,1004.96
2017-07-19T08:29:51.196Z,1004.93
2017-07-19T08:30:46.286Z,1004.87
2017-07-19T08:31:41.308Z,1004.82
2017-07-19T08:32:30.476Z,1004.82
2017-07-19T08:33:24.458Z,1004.81
2017-07-19T08:34:24.523Z,1004.85
2017-07-19T08:35:24.704Z,1004.85
2017-07-19T08:36:24.933Z,1004.90
2017-07-19T08:37:13.845Z,1004.93
2017-07-19T08:38:13.921Z,1005.02
2017-07-19T08:39:09.030Z,1005.04
2017-07-19T08:40:10.129Z,1005.01
2017-07-19T08:40:58.131Z,1004.96
2017-07-19T08:41:53.260Z,1004.95
2017-07-19T08:42:42.276Z,1004.95
2017-07-19T08:43:36.421Z,1004.90
2017-07-19T08:44:30.469Z,1004.96
2017-07-19T08:45:18.494Z,1004.97
2017-07-19T08:46:13.577Z,1004.95
2017-07-19T08:47:02.682Z,1004.95
2017-07-19T08:48:02.708Z,1004.95
2017-07-19T08:49:03.830Z,1004.98
2017-07-19T08:49:57.913Z,1005.04
2017-07-19T08:50:46.036Z,1004.98
2017-07-19T08:51:41.132Z,1004.97
2017-07-19T08:52:30.266Z,1004.96
2017-07-19T08:53:24.314Z,1004.94
2017-07-19T08:54:18.466Z,1004.98
2017-07-19T08:55:07.314Z,1004.96
2017-07-19T08:56:01.351Z,1004.94
2017-07-19T08:56:56.631Z,1004.91
2017-07-19T08:57:45.716Z,1004.87
2017-07-19T08:58:45.813Z,1004.88
2017-07-19T08:59:46.799Z,1004.89
2017-07-19T09:00:41.903Z,1004.83
2017-07-19T09:01:41.965Z,1004.82
2017-07-19T09:02:31.102Z,1004.77
2017-07-19T09:03:25.085Z,1004.77
2017-07-19T09:04:19.197Z,1004.79
2017-07-19T09:05:07.385Z,1004.73
2017-07-19T09:06:01.403Z,1004.80
2017-07-19T09:06:56.464Z,1004.85
2017-07-19T09:07:50.525Z,1004.83
2017-07-19T09:08:51.746Z,1004.92
2017-07-19T09:09:40.624Z,1004.82
2017-07-19T09:10:29.784Z,1004.90
2017-07-19T09:11:17.931Z,1004.77
2017-07-19T09:12:11.997Z,1004.83
2017-07-19T09:13:06.100Z,1004.88
2017-07-19T09:14:06.031Z,1004.90
2017-07-19T09:15:00.309Z,1004.85
2017-07-19T09:15:48.977Z,1004.89
2017-07-19T09:16:38.309Z,1004.87
2017-07-19T09:17:38.454Z,1004.90
2017-07-19T09:18:39.162Z,1004.90
2017-07-19T09:19:34.490Z,1004.86
2017-07-19T09:20:29.647Z,1004.82
2017-07-19T09:21:17.820Z,1004.76
2017-07-19T09:22:12.867Z,1004.76
2017-07-19T09:23:07.044Z,1004.74
2017-07-19T09:24:07.044Z,1004.70
2017-07-19T09:24:55.205Z,1004.69
2017-07-19T09:25:50.211Z,1004.69
2017-07-19T09:26:50.333Z,1004.67
2017-07-19T09:27:50.637Z,1004.65
2017-07-19T09:28:39.295Z,1004.65
2017-07-19T09:29:33.517Z,1004.70
2017-07-19T09:30:33.600Z,1004.66
2017-07-19T09:31:27.673Z,1004.65
2017-07-19T09:32:22.677Z,1004.63
2017-07-19T09:33:17.778Z,1004.61
2017-07-19T09:34:11.786Z,1004.63
2017-07-19T09:35:05.905Z,1004.66
2017-07-19T09:35:55.068Z,1004.64
2017-07-19T09:36:55.169Z,1004.65
2017-07-19T09:37:55.289Z,1004.63
2017-07-19T09:38:49.444Z,1004.61
2017-07-19T09:39:37.429Z,1004.62
2017-07-19T09:40:31.556Z,1004.53
2017-07-19T09:41:19.544Z,1004.49
2017-07-19T09:42:14.641Z,1004.45
2017-07-19T09:43:08.821Z,1004.36
2017-07-19T09:44:02.907Z,1004.33
2017-07-19T09:44:56.929Z,1004.32
2017-07-19T09:45:51.095Z,1004.37
2017-07-19T09:46:45.136Z,1004.41
2017-07-19T09:47:40.121Z,1004.38
2017-07-19T09:48:35.275Z,1004.40
2017-07-19T09:49:29.313Z,1004.40
2017-07-19T09:50:23.425Z,1004.29
2017-07-19T09:51:12.528Z,1004.34
2017-07-19T09:52:01.546Z,1004.28
2017-07-19T09:53:01.663Z,1004.29
2017-07-19T09:53:50.749Z,1004.22
2017-07-19T09:54:51.809Z,1004.27
2017-07-19T09:55:46.876Z,1004.22
2017-07-19T09:56:41.201Z,1004.25
2017-07-19T09:57:36.107Z,1004.22
2017-07-19T09:58:30.165Z,1004.25
2017-07-19T09:59:24.202Z,1004.26
2017-07-19T10:00:19.288Z,1004.23
2017-07-19T10:01:14.389Z,1004.26
2017-07-19T10:02:08.485Z,1004.23
2017-07-19T10:03:02.490Z,1004.29
2017-07-19T10:03:56.730Z,1004.29
2017-07-19T10:04:56.756Z,1004.33
2017-07-19T10:05:56.767Z,1004.32
2017-07-19T10:06:51.890Z,1004.37
2017-07-19T10:07:45.993Z,1004.34
2017-07-19T10:08:46.099Z,1004.37
2017-07-19T10:09:40.097Z,1004.37
2017-07-19T10:10:29.192Z,1004.32
2017-07-19T10:11:29.261Z,1004.26
2017-07-19T10:12:35.399Z,1004.26
2017-07-19T10:13:24.503Z,1004.25
2017-07-19T10:14:13.609Z,1004.28
2017-07-19T10:15:08.673Z,1004.28
2017-07-19T10:15:57.673Z,1004.31
2017-07-19T10:16:51.898Z,1004.31
2017-07-19T10:17:46.879Z,1004.29
2017-07-19T10:18:47.179Z,1004.30
2017-07-19T10:19:36.103Z,1004.33
2017-07-19T10:20:37.120Z,1004.35
2017-07-19T10:21:31.269Z,1004.29
2017-07-19T10:22:25.301Z,1004.31
2017-07-19T10:23:19.516Z,1004.22
2017-07-19T10:24:14.484Z,1004.21
2017-07-19T10:25:08.569Z,1004.13
2017-07-19T10:26:08.778Z,1004.17
2017-07-19T10:27:08.790Z,1004.11
2017-07-19T10:28:08.875Z,1004.10
2017-07-19T10:29:14.981Z,1004.02
2017-07-19T10:30:04.036Z,1004.01
2017-07-19T10:31:04.113Z,1004.04
2017-07-19T10:31:53.257Z,1004.04
2017-07-19T10:32:47.249Z,1003.98
2017-07-19T10:33:42.344Z,1003.92
2017-07-19T10:34:37.465Z,1003.84
2017-07-19T10:35:26.529Z,1003.85
2017-07-19T10:36:26.638Z,1003.86
2017-07-19T10:37:15.768Z,1003.92
2017-07-19T10:38:04.821Z,1003.78
2017-07-19T10:38:58.848Z,1003.87
2017-07-19T10:39:53.961Z,1003.89
2017-07-19T10:40:43.111Z,1003.87
2017-07-19T10:41:38.147Z,1003.88
2017-07-19T10:42:32.306Z,1003.85
2017-07-19T10:43:27.259Z,1003.91
2017-07-19T10:44:28.446Z,1003.91
2017-07-19T10:45:23.585Z,1003.89
2017-07-19T10:46:12.578Z,1003.85
2017-07-19T10:47:07.685Z,1003.84
2017-07-19T10:48:02.804Z,1003.81
2017-07-19T10:48:56.893Z,1003.80
2017-07-19T10:49:51.998Z,1003.87
2017-07-19T10:50:39.959Z,1003.87
2017-07-19T10:51:35.117Z,1003.83
2017-07-19T10:52:24.266Z,1003.84
2017-07-19T10:53:18.288Z,1003.88
2017-07-19T10:54:12.329Z,1003.82
2017-07-19T10:55:01.495Z,1003.83
2017-07-19T10:55:55.742Z,1003.72
2017-07-19T10:56:50.668Z,1003.77
2017-07-19T10:57:44.768Z,1003.70
2017-07-19T10:58:39.766Z,1003.73